createdAt,value
2018-12-20T00:02:03.850Z,96.73
2018-12-20T00:04:35.223Z,96.20
2018-12-20T00:07:07.639Z,86.60
2018-12-20T00:09:35.507Z,92.80
2018-12-20T00:12:03.444Z,96.37
2018-12-20T00:14:31.329Z,89.47
2018-12-20T00:17:04.797Z,117.17
2018-12-20T00:19:32.633Z,69.40
2018-12-20T00:22:00.390Z,99.50
2018-12-20T00:24:35.737Z,97.00
2018-12-20T00:27:03.897Z,93.70
2018-12-20T00:29:31.927Z,100.73
2018-12-20T00:34:50.339Z,94.17
2018-12-20T00:37:24.157Z,87.23
2018-12-20T00:39:54.092Z,100.00
2018-12-20T00:42:26.777Z,82.40
2018-12-20T00:44:54.498Z,100.97
2018-12-20T00:47:22.276Z,93.27
2018-12-20T00:49:50.284Z,106.77
2018-12-20T00:52:18.273Z,90.63
2018-12-20T00:54:46.137Z,80.27
2018-12-20T00:57:13.981Z,65.57
2018-12-20T00:59:42.099Z,81.57
2018-12-20T01:02:09.995Z,93.30
2018-12-20T01:04:37.999Z,86.90
2018-12-20T01:07:05.865Z,82.60
2018-12-20T01:09:33.560Z,86.60
2018-12-20T01:12:01.416Z,97.67
2018-12-20T01:14:29.175Z,103.07
2018-12-20T01:16:56.837Z,106.77
2018-12-20T01:19:24.779Z,101.17
2018-12-20T01:21:52.659Z,115.97
2018-12-20T01:24:20.480Z,92.30
2018-12-20T01:26:48.251Z,98.90
2018-12-20T01:29:16.729Z,102.97
2018-12-20T01:31:49.199Z,96.30
2018-12-20T01:34:18.068Z,76.93
2018-12-20T01:36:46.007Z,98.93
2018-12-20T01:39:13.965Z,101.17
2018-12-20T01:41:41.859Z,85.17
2018-12-20T01:44:09.820Z,85.73
2018-12-20T01:46:37.699Z,86.20
2018-12-20T01:49:05.503Z,88.93
2018-12-20T01:51:33.394Z,89.03
2018-12-20T01:54:01.133Z,95.97
2018-12-20T01:56:28.818Z,90.77
2018-12-20T01:58:56.562Z,93.80
2018-12-20T02:01:24.293Z,76.67
2018-12-20T02:03:52.081Z,87.13
2018-12-20T02:06:19.842Z,84.57
2018-12-20T02:08:47.621Z,80.90
2018-12-20T02:11:15.416Z,74.20
2018-12-20T02:13:43.162Z,81.60
2018-12-20T02:16:11.069Z,77.17
2018-12-20T02:18:38.874Z,78.87
2018-12-20T02:21:06.827Z,78.93
2018-12-20T02:23:34.861Z,83.77
2018-12-20T02:26:02.802Z,79.23
2018-12-20T02:28:30.648Z,66.30
2018-12-20T02:30:58.451Z,79.37
2018-12-20T02:33:26.325Z,91.97
2018-12-20T02:35:54.115Z,82.00
2018-12-20T02:38:22.003Z,92.00
2018-12-20T02:40:49.811Z,69.43
2018-12-20T02:43:17.561Z,84.47
2018-12-20T02:45:45.331Z,86.10
2018-12-20T02:48:13.180Z,86.60
2018-12-20T02:50:41.011Z,68.33
2018-12-20T02:53:08.797Z,80.50
2018-12-20T02:55:36.609Z,79.70
2018-12-20T02:58:04.359Z,82.77
2018-12-20T03:00:32.078Z,76.67
2018-12-20T03:02:59.797Z,75.40
2018-12-20T03:05:27.822Z,90.07
2018-12-20T03:07:55.597Z,68.57
2018-12-20T03:10:23.338Z,85.10
2018-12-20T03:12:51.129Z,76.20
2018-12-20T03:15:20.155Z,73.93
2018-12-20T03:17:48.589Z,81.83
2018-12-20T03:20:16.409Z,78.37
2018-12-20T03:22:44.145Z,79.03
2018-12-20T03:25:12.103Z,70.73
2018-12-20T03:27:40.055Z,69.63
2018-12-20T03:30:11.392Z,84.10
2018-12-20T03:32:39.229Z,81.50
2018-12-20T03:35:07.301Z,78.20
2018-12-20T03:37:35.189Z,75.20
2018-12-20T03:40:03.834Z,79.83
2018-12-20T03:42:32.155Z,78.90
2018-12-20T03:45:00.299Z,85.90
2018-12-20T03:47:28.202Z,81.03
2018-12-20T03:49:56.701Z,70.97
2018-12-20T03:52:24.514Z,76.80
2018-12-20T03:54:52.573Z,79.40
2018-12-20T03:57:20.551Z,75.87
2018-12-20T03:59:48.511Z,72.87
2018-12-20T04:02:16.501Z,82.37
2018-12-20T04:04:44.366Z,94.83
2018-12-20T04:07:12.330Z,89.97
2018-12-20T04:09:40.325Z,81.73
2018-12-20T04:12:08.215Z,76.10
2018-12-20T04:14:36.299Z,93.67
2018-12-20T04:17:04.335Z,90.53
2018-12-20T04:19:32.174Z,101.17
2018-12-20T04:22:00.097Z,81.67
2018-12-20T04:24:28.054Z,82.90
2018-12-20T04:26:55.817Z,94.83
2018-12-20T04:29:23.549Z,85.70
2018-12-20T04:31:51.477Z,80.57
2018-12-20T04:34:19.388Z,89.30
2018-12-20T04:36:47.070Z,99.40
2018-12-20T04:39:14.728Z,99.47
2018-12-20T04:41:42.483Z,95.10
2018-12-20T04:44:10.510Z,86.23
2018-12-20T04:46:38.477Z,78.30
2018-12-20T04:49:06.351Z,91.20
2018-12-20T04:51:34.166Z,95.77
2018-12-20T04:54:01.960Z,100.77
2018-12-20T04:56:29.859Z,101.93
2018-12-20T04:58:57.770Z,90.03
2018-12-20T05:01:25.586Z,90.13
2018-12-20T05:03:53.374Z,95.67
2018-12-20T05:06:21.321Z,88.00
2018-12-20T05:08:49.043Z,84.93
2018-12-20T05:11:16.814Z,76.50
2018-12-20T05:13:44.584Z,90.73
2018-12-20T05:16:12.278Z,92.20
2018-12-20T05:18:39.970Z,95.30
2018-12-20T05:21:08.146Z,96.67
2018-12-20T05:23:36.072Z,115.90
2018-12-20T05:26:03.871Z,90.23
2018-12-20T05:28:31.656Z,96.50
2018-12-20T05:30:59.448Z,94.87
2018-12-20T05:33:27.347Z,80.00
2018-12-20T05:35:55.162Z,81.60
2018-12-20T05:38:22.887Z,79.53
2018-12-20T05:40:50.777Z,79.20
2018-12-20T05:43:24.036Z,78.83
2018-12-20T05:45:51.809Z,83.13
2018-12-20T05:48:19.599Z,77.20
2018-12-20T05:50:47.585Z,78.33
2018-12-20T05:53:15.469Z,89.30
2018-12-20T05:55:43.328Z,73.53
2018-12-20T05:58:11.103Z,73.93
2018-12-20T06:00:38.945Z,72.70
2018-12-20T06:03:06.635Z,87.73
2018-12-20T06:05:34.882Z,87.47
2018-12-20T06:08:02.578Z,84.00
2018-12-20T06:10:30.299Z,87.90
2018-12-20T06:12:58.242Z,93.50
2018-12-20T06:15:26.575Z,84.93
2018-12-20T06:17:54.605Z,85.47
2018-12-20T06:20:22.523Z,83.87
2018-12-20T06:22:50.218Z,72.33
2018-12-20T06:25:17.949Z,80.07
2018-12-20T06:27:46.772Z,97.07
2018-12-20T06:30:14.490Z,73.10
2018-12-20T06:32:42.194Z,73.80
2018-12-20T06:35:09.983Z,66.10
2018-12-20T06:37:37.733Z,80.10
2018-12-20T06:40:05.666Z,71.13
2018-12-20T06:42:33.416Z,78.83
2018-12-20T06:45:01.126Z,70.70
2018-12-20T06:47:28.858Z,82.77
2018-12-20T06:49:56.579Z,76.73
2018-12-20T06:52:24.338Z,89.93
2018-12-20T06:54:52.040Z,78.93
2018-12-20T06:57:19.778Z,88.13
2018-12-20T06:59:47.482Z,78.50
2018-12-20T07:02:15.255Z,73.40
2018-12-20T07:04:42.977Z,73.63
2018-12-20T07:07:10.718Z,78.10
2018-12-20T07:09:38.426Z,82.60
2018-12-20T07:12:06.164Z,96.30
2018-12-20T07:14:33.845Z,81.80
2018-12-20T07:17:01.575Z,82.70
2018-12-20T07:19:29.348Z,86.63
2018-12-20T07:21:57.042Z,82.03
2018-12-20T07:24:24.844Z,111.60
2018-12-20T07:26:52.593Z,108.20
2018-12-20T07:29:20.307Z,116.57
2018-12-20T07:31:47.982Z,122.77
2018-12-20T07:34:16.272Z,105.90
2018-12-20T07:36:44.062Z,108.30
2018-12-20T07:39:11.782Z,152.43
2018-12-20T07:41:39.562Z,111.27
2018-12-20T07:44:07.285Z,116.00
2018-12-20T07:46:37.926Z,117.17
2018-12-20T07:49:04.669Z,106.73
2018-12-20T07:51:32.378Z,108.97
2018-12-20T07:54:00.266Z,120.07
2018-12-20T07:56:27.981Z,100.87
2018-12-20T07:58:55.688Z,115.73
2018-12-20T08:01:23.406Z,115.13
2018-12-20T08:03:51.168Z,95.37
2018-12-20T08:06:18.840Z,100.97
2018-12-20T08:08:46.555Z,106.90
2018-12-20T08:11:14.486Z,88.90
2018-12-20T08:13:42.208Z,87.57
2018-12-20T08:16:09.906Z,96.67
2018-12-20T08:18:37.760Z,101.97
2018-12-20T08:21:05.532Z,92.67
2018-12-20T08:23:33.256Z,93.27
2018-12-20T08:26:00.918Z,99.40
2018-12-20T08:28:28.686Z,90.83
2018-12-20T08:30:57.150Z,98.90
2018-12-20T08:33:24.934Z,105.83
2018-12-20T08:35:52.686Z,87.73
2018-12-20T08:38:20.446Z,84.97
2018-12-20T08:40:48.140Z,90.13
2018-12-20T08:43:15.987Z,93.57
2018-12-20T08:45:43.680Z,90.47
2018-12-20T08:48:11.360Z,91.50
2018-12-20T08:50:39.228Z,101.67
2018-12-20T08:53:06.943Z,100.03
2018-12-20T08:55:34.648Z,99.67
2018-12-20T08:58:02.402Z,77.50
2018-12-20T09:00:30.204Z,82.00
2018-12-20T09:02:57.929Z,87.47
2018-12-20T09:05:25.756Z,92.40
2018-12-20T09:07:53.527Z,91.07
2018-12-20T09:10:21.579Z,91.33
2018-12-20T09:12:49.284Z,88.37
2018-12-20T09:15:17.012Z,101.63
2018-12-20T09:17:44.768Z,107.67
2018-12-20T09:20:13.301Z,108.47
2018-12-20T09:22:54.107Z,105.77
2018-12-20T09:25:22.790Z,113.07
2018-12-20T09:27:50.504Z,102.07
2018-12-20T09:30:18.216Z,98.17
2018-12-20T09:32:45.880Z,111.40
2018-12-20T09:35:13.608Z,83.47
2018-12-20T09:37:41.305Z,90.77
2018-12-20T09:40:09.394Z,102.53
2018-12-20T09:42:37.154Z,86.23
2018-12-20T09:45:12.637Z,97.23
2018-12-20T09:47:46.071Z,104.63
2018-12-20T09:50:14.402Z,97.47
2018-12-20T09:52:42.050Z,99.33
2018-12-20T09:55:09.751Z,98.70
2018-12-20T09:57:37.441Z,82.80
2018-12-20T10:00:06.314Z,83.97
2018-12-20T10:02:34.024Z,79.30
2018-12-20T10:05:01.691Z,92.83
2018-12-20T10:07:29.377Z,83.57
2018-12-20T10:09:57.084Z,87.20
2018-12-20T10:12:24.727Z,90.13
2018-12-20T10:14:52.404Z,89.70
2018-12-20T10:17:20.321Z,89.77
2018-12-20T10:19:48.106Z,98.33
2018-12-20T10:22:15.802Z,99.53
2018-12-20T10:24:43.542Z,100.13
2018-12-20T10:27:11.205Z,95.37
2018-12-20T10:29:38.860Z,89.43
2018-12-20T10:32:06.557Z,84.63
2018-12-20T10:34:35.424Z,104.43
2018-12-20T10:37:03.245Z,100.37
2018-12-20T10:39:30.916Z,107.20
2018-12-20T10:41:58.581Z,94.70
2018-12-20T10:44:26.253Z,92.10
2018-12-20T10:46:56.395Z,100.23
2018-12-20T10:49:24.063Z,83.23
2018-12-20T10:51:51.978Z,101.60
2018-12-20T10:54:19.745Z,94.87
2018-12-20T10:56:47.428Z,105.90
2018-12-20T10:59:15.244Z,91.67
2018-12-20T11:01:46.422Z,93.90
2018-12-20T11:04:19.809Z,105.00
2018-12-20T11:06:53.152Z,100.73
2018-12-20T11:09:26.574Z,89.10
2018-12-20T11:11:59.946Z,100.93
2018-12-20T11:14:27.654Z,92.57
2018-12-20T11:16:55.356Z,94.07
2018-12-20T11:19:23.610Z,87.93
2018-12-20T11:21:51.385Z,92.30
2018-12-20T11:24:19.088Z,96.77
2018-12-20T11:26:46.804Z,101.80
2018-12-20T11:29:14.530Z,90.97
2018-12-20T11:31:42.204Z,103.23
2018-12-20T11:34:09.930Z,91.33
2018-12-20T11:36:40.963Z,99.90
2018-12-20T11:39:08.808Z,90.63
2018-12-20T11:41:38.328Z,99.40
2018-12-20T11:44:06.064Z,104.00
2018-12-20T11:46:33.890Z,109.40
2018-12-20T11:49:01.671Z,118.33
2018-12-20T11:51:29.426Z,88.93
2018-12-20T11:54:03.965Z,108.27
2018-12-20T11:56:31.608Z,120.40
2018-12-20T11:58:59.322Z,116.30
2018-12-20T12:01:27.039Z,110.53
2018-12-20T12:03:57.485Z,103.20
2018-12-20T12:06:24.392Z,116.63
2018-12-20T12:08:52.100Z,118.10
2018-12-20T12:11:19.807Z,98.50
2018-12-20T12:13:47.534Z,97.03
2018-12-20T12:16:15.232Z,101.83
2018-12-20T12:18:49.702Z,97.30
2018-12-20T12:21:17.496Z,103.33
2018-12-20T12:23:45.214Z,92.90
2018-12-20T12:26:12.894Z,98.37
2018-12-20T12:28:40.607Z,100.50
2018-12-20T12:31:08.441Z,101.77
2018-12-20T12:33:36.148Z,101.97
2018-12-20T12:36:04.061Z,106.57
2018-12-20T12:38:31.738Z,93.27
2018-12-20T12:40:59.588Z,92.53
2018-12-20T12:43:27.374Z,98.83
2018-12-20T12:45:55.067Z,119.47
2018-12-20T12:48:22.770Z,119.47
2018-12-20T12:50:50.483Z,105.43
2018-12-20T12:53:18.198Z,118.07
2018-12-20T12:55:46.207Z,102.37
2018-12-20T12:58:13.948Z,110.53
2018-12-20T13:00:41.774Z,102.20
2018-12-20T13:03:09.440Z,117.87
2018-12-20T13:05:37.184Z,106.37
2018-12-20T13:08:04.860Z,107.70
2018-12-20T13:10:32.567Z,118.17
2018-12-20T13:13:00.332Z,113.30
2018-12-20T13:15:28.005Z,123.50
2018-12-20T13:17:55.678Z,128.30
2018-12-20T13:20:23.432Z,125.43
2018-12-20T13:22:51.160Z,127.30
2018-12-20T13:25:18.902Z,119.87
2018-12-20T13:27:46.724Z,130.20
2018-12-20T13:30:14.400Z,122.50
2018-12-20T13:32:42.427Z,114.70
2018-12-20T13:35:10.311Z,114.53
2018-12-20T13:37:37.996Z,116.97
2018-12-20T13:40:06.204Z,126.57
2018-12-20T13:42:34.070Z,138.93
2018-12-20T13:45:01.799Z,125.03
2018-12-20T13:47:29.505Z,137.20
2018-12-20T13:49:57.232Z,128.30
2018-12-20T13:52:25.038Z,150.47
2018-12-20T13:54:52.738Z,146.30
2018-12-20T13:57:20.464Z,132.07
2018-12-20T13:59:48.134Z,134.60
2018-12-20T14:02:15.860Z,131.10
2018-12-20T14:04:43.614Z,163.60
2018-12-20T14:07:11.304Z,140.77
2018-12-20T14:09:38.968Z,138.90
2018-12-20T14:12:06.816Z,144.80
2018-12-20T14:14:34.482Z,130.43
2018-12-20T14:17:02.434Z,134.03
2018-12-20T14:19:30.144Z,133.17
2018-12-20T14:21:57.841Z,123.17
2018-12-20T14:24:25.630Z,112.17
2018-12-20T14:26:53.339Z,129.80
2018-12-20T14:29:21.028Z,137.87
2018-12-20T14:31:48.728Z,134.80
2018-12-20T14:34:16.600Z,136.20
2018-12-20T14:36:44.460Z,162.23
2018-12-20T14:39:12.196Z,147.13
2018-12-20T14:41:39.899Z,158.97
2018-12-20T14:44:07.619Z,156.90
2018-12-20T14:46:35.305Z,138.77
2018-12-20T14:49:03.160Z,138.10
2018-12-20T14:51:30.931Z,140.90
2018-12-20T14:53:58.650Z,223.97
2018-12-20T14:56:26.381Z,148.40
2018-12-20T14:58:54.093Z,165.20
2018-12-20T15:01:21.801Z,139.73
2018-12-20T15:03:49.560Z,162.10
2018-12-20T15:06:20.044Z,142.97
2018-12-20T15:08:47.835Z,149.70
2018-12-20T15:11:15.591Z,135.60
2018-12-20T15:13:43.307Z,120.00
2018-12-20T15:16:11.090Z,134.67
2018-12-20T15:18:38.795Z,138.03
2018-12-20T15:21:06.493Z,135.97
2018-12-20T15:23:34.320Z,165.23
2018-12-20T15:26:02.055Z,156.30
2018-12-20T15:28:29.806Z,141.00
2018-12-20T15:30:57.549Z,146.90
2018-12-20T15:33:26.826Z,143.77
2018-12-20T15:35:54.573Z,141.53
2018-12-20T15:38:22.318Z,144.77
2018-12-20T15:40:50.071Z,135.30
2018-12-20T15:43:17.806Z,128.90
2018-12-20T15:45:45.570Z,154.80
2018-12-20T15:48:15.653Z,160.37
2018-12-20T15:50:43.430Z,137.97
2018-12-20T15:53:11.441Z,149.13
2018-12-20T15:55:39.349Z,145.47
2018-12-20T15:58:07.048Z,169.73
2018-12-20T16:00:34.781Z,150.10
2018-12-20T16:03:02.549Z,129.60
2018-12-20T16:05:30.282Z,142.30
2018-12-20T16:08:03.741Z,135.37
2018-12-20T16:10:31.495Z,131.23
2018-12-20T16:12:59.234Z,140.20
2018-12-20T16:15:26.981Z,145.67
2018-12-20T16:17:54.689Z,132.50
2018-12-20T16:20:22.455Z,151.37
2018-12-20T16:22:50.197Z,143.23
2018-12-20T16:25:18.204Z,141.13
2018-12-20T16:27:45.937Z,130.73
2018-12-20T16:30:13.735Z,140.77
2018-12-20T16:32:41.493Z,137.43
2018-12-20T16:35:09.307Z,125.63
2018-12-20T16:37:37.095Z,130.90
2018-12-20T16:40:05.705Z,123.33
2018-12-20T16:42:33.647Z,139.80
2018-12-20T16:45:01.415Z,117.43
2018-12-20T16:47:29.189Z,114.47
2018-12-20T16:49:56.970Z,120.77
2018-12-20T16:52:31.317Z,123.30
2018-12-20T16:54:59.057Z,126.67
2018-12-20T16:57:26.845Z,119.40
2018-12-20T16:59:54.593Z,108.17
2018-12-20T17:02:22.342Z,124.90
2018-12-20T17:04:50.071Z,121.47
2018-12-20T17:07:17.905Z,102.90
2018-12-20T17:09:45.665Z,107.23
2018-12-20T17:12:13.528Z,135.57
2018-12-20T17:14:41.294Z,124.70
2018-12-20T17:17:09.043Z,122.23
2018-12-20T17:19:36.781Z,163.40
2018-12-20T17:22:04.548Z,158.10
2018-12-20T17:24:32.332Z,152.63
2018-12-20T17:27:00.292Z,156.97
2018-12-20T17:29:28.260Z,143.23
2018-12-20T17:31:55.944Z,138.87
2018-12-20T17:34:23.723Z,141.70
2018-12-20T17:39:25.908Z,144.73
2018-12-20T17:41:53.691Z,153.87
2018-12-20T17:44:21.565Z,159.47
2018-12-20T17:46:49.387Z,150.07
2018-12-20T17:49:21.584Z,131.90
2018-12-20T17:51:49.348Z,142.97
2018-12-20T17:54:17.274Z,123.57
2018-12-20T17:56:45.216Z,123.80
2018-12-20T17:59:12.988Z,132.20
2018-12-20T18:01:40.816Z,144.37
2018-12-20T18:04:08.710Z,139.33
2018-12-20T18:06:36.890Z,126.23
2018-12-20T18:09:07.389Z,137.20
2018-12-20T18:11:36.948Z,139.77
2018-12-20T18:14:04.829Z,149.23
2018-12-20T18:16:33.547Z,141.87
2018-12-20T18:19:01.374Z,137.87
2018-12-20T18:21:32.830Z,143.40
2018-12-20T18:24:04.025Z,156.87
2018-12-20T18:26:31.808Z,148.70
2018-12-20T18:28:59.585Z,138.30
2018-12-20T18:31:27.471Z,136.63
2018-12-20T18:33:55.370Z,167.17
2018-12-20T18:36:23.742Z,149.40
2018-12-20T18:38:51.532Z,153.33
2018-12-20T18:41:19.367Z,137.30
2018-12-20T18:43:47.127Z,177.27
2018-12-20T18:46:14.917Z,122.43
2018-12-20T18:48:51.109Z,140.97
2018-12-20T18:51:19.781Z,150.13
2018-12-20T18:53:52.873Z,166.80
2018-12-20T18:56:28.967Z,148.47
2018-12-20T18:59:04.215Z,166.43
2018-12-20T19:01:44.956Z,145.73
2018-12-20T19:04:13.088Z,138.67
2018-12-20T19:06:40.833Z,142.47
2018-12-20T19:09:08.525Z,147.50
2018-12-20T19:11:36.228Z,151.37
2018-12-20T19:14:04.897Z,162.23
2018-12-20T19:16:32.603Z,159.27
2018-12-20T19:19:00.510Z,146.83
2018-12-20T19:21:31.255Z,143.37
2018-12-20T19:24:03.724Z,167.67
2018-12-20T19:26:33.504Z,180.50
2018-12-20T19:29:01.508Z,166.53
2018-12-20T19:31:31.783Z,154.67
2018-12-20T19:33:59.705Z,173.10
2018-12-20T19:36:28.332Z,152.97
2018-12-20T19:38:56.704Z,164.43
2018-12-20T19:41:27.661Z,170.60
2018-12-20T19:44:10.965Z,152.37
2018-12-20T19:46:41.792Z,147.77
2018-12-20T19:49:12.183Z,166.10
2018-12-20T19:51:43.253Z,155.83
2018-12-20T19:54:15.083Z,147.10
2018-12-20T19:56:43.520Z,153.87
2018-12-20T19:59:13.178Z,159.53
2018-12-20T20:01:41.771Z,172.07
2018-12-20T20:04:12.723Z,163.50
2018-12-20T20:06:43.134Z,177.30
2018-12-20T20:09:15.344Z,170.87
2018-12-20T20:11:44.841Z,169.10
2018-12-20T20:14:16.198Z,175.60
2018-12-20T20:16:50.637Z,163.00
2018-12-20T20:19:20.245Z,167.43
2018-12-20T20:21:49.345Z,171.60
2018-12-20T20:24:20.399Z,189.80
2018-12-20T20:26:51.215Z,179.43
2018-12-20T20:29:27.441Z,164.10
2018-12-20T20:31:58.177Z,169.07
2018-12-20T20:34:29.696Z,180.87
2018-12-20T20:37:00.526Z,155.87
2018-12-20T20:39:31.319Z,167.13
2018-12-20T20:42:00.773Z,165.90
2018-12-20T20:44:31.125Z,194.90
2018-12-20T20:46:59.685Z,189.37
2018-12-20T20:49:32.197Z,203.00
2018-12-20T20:52:02.673Z,175.70
2018-12-20T20:54:31.732Z,181.03
2018-12-20T20:57:01.936Z,159.20
2018-12-20T20:59:32.789Z,170.43
2018-12-20T21:02:00.785Z,175.37
2018-12-20T21:04:29.505Z,175.00
2018-12-20T21:07:01.969Z,168.70
2018-12-20T21:09:48.833Z,179.23
2018-12-20T21:12:22.745Z,192.10
2018-12-20T21:14:52.343Z,195.27
2018-12-20T21:17:20.249Z,182.83
2018-12-20T21:19:50.602Z,180.90
2018-12-20T21:22:19.583Z,193.90
2018-12-20T21:24:52.595Z,185.10
2018-12-20T21:27:22.369Z,194.20
2018-12-20T21:29:51.982Z,205.10
2018-12-20T21:32:22.267Z,189.77
2018-12-20T21:34:54.694Z,200.23
2018-12-20T21:37:24.389Z,191.07
2018-12-20T21:40:10.860Z,200.63
2018-12-20T21:42:40.733Z,207.90
2018-12-20T21:45:11.322Z,197.60
2018-12-20T21:47:50.475Z,171.33
2018-12-20T21:50:20.513Z,202.03
2018-12-20T21:55:42.758Z,200.47
2018-12-20T21:58:10.724Z,182.10
2018-12-20T22:00:38.684Z,200.03
2018-12-20T22:03:06.776Z,202.77
2018-12-20T22:05:41.564Z,181.73
2018-12-20T22:08:28.241Z,206.23
2018-12-20T22:11:28.524Z,191.50
2018-12-20T22:14:07.203Z,198.33
2018-12-20T22:16:42.644Z,197.43
2018-12-20T22:19:15.336Z,179.30
2018-12-20T22:21:50.884Z,171.40
2018-12-20T22:24:29.491Z,207.83
2018-12-20T22:27:04.515Z,189.87
2018-12-20T22:29:35.862Z,200.47
2018-12-20T22:32:08.471Z,194.80
2018-12-20T22:34:43.691Z,188.73
2018-12-20T22:37:11.640Z,199.20
2018-12-20T22:39:39.363Z,208.43
2018-12-20T22:42:07.159Z,197.33
2018-12-20T22:44:34.937Z,209.80
2018-12-20T22:47:02.749Z,200.20
2018-12-20T22:49:30.521Z,197.87
2018-12-20T22:51:58.326Z,170.13
2018-12-20T22:54:26.177Z,195.70
2018-12-20T22:56:53.995Z,167.03
2018-12-20T22:59:21.731Z,196.17
2018-12-20T23:01:49.443Z,188.13
2018-12-20T23:04:17.303Z,190.87
2018-12-20T23:06:46.026Z,192.67
2018-12-20T23:09:13.793Z,187.97
2018-12-20T23:11:41.568Z,185.00
2018-12-20T23:14:09.324Z,198.13
2018-12-20T23:16:37.103Z,191.70
2018-12-20T23:19:04.871Z,188.47
2018-12-20T23:21:32.563Z,162.00
2018-12-20T23:24:00.255Z,181.47
2018-12-20T23:26:27.984Z,198.83
2018-12-20T23:28:55.708Z,205.60
2018-12-20T23:31:23.413Z,196.70
2018-12-20T23:33:51.127Z,190.87
2018-12-20T23:36:18.914Z,179.90
2018-12-20T23:38:46.760Z,173.90
2018-12-20T23:41:14.464Z,180.03
2018-12-20T23:43:42.160Z,176.40
2018-12-20T23:46:09.972Z,188.47
2018-12-20T23:48:37.758Z,167.80
